Kodiak — WDC2516 — position and weather

sailwx.info

Track history (hours):
 
Tides and Currents Weather Stations Pressure Air Temp Water Temp Dewpoint Dewpoint Depression Visibility Wind Speed Wind Dir Waves Ship Positions

Kodiak

More information available from US FCC via Universal Licensing System and Coast Guard Vessel Documentation Center.

Last reported at 2014-Sep-09 23:06 UTC. Time now 2014-Sep-20 10:00 UTC.
Position N 34°12' W 119°32'.
Warning: this ship's position is 10 days out of date.

Length 22 m.

Type: Pleasure craft. MMSI: 366994170.

Date/timePositionNaut miles runAvg speedWind from/ knotsBaromVisibWave heightAir tempDewpointWater temp
2014-Sep-09 23:06N 34°12' W 119°32'1810.0
2014-Sep-09 21:19N 34°17' W 119°53'137 5.1
2014-Sep-08 18:21N 36°01' W 121°41'8 9.8
2014-Sep-08 17:32N 36°07' W 121°47'9 9.6
2014-Sep-08 16:33N 36°15' W 121°54'10 9.7
2014-Sep-08 15:33N 36°24' W 121°58'1110.4
2014-Sep-08 14:32N 36°34' W 122°00'  
2014-Sep-05 19:04N 37°07' W 122°24'8 9.8
2014-Sep-05 18:12N 37°15' W 122°28'34 8.6
2014-Sep-05 14:16N 37°49' W 122°29'2 2.3
2014-Sep-05 13:24N 37°48' W 122°27'0 0.0
2014-Sep-05 12:06N 37°48' W 122°27'0 0.0
2014-Sep-05 11:30N 37°48' W 122°27'0 0.0
2014-Sep-05 10:18N 37°48' W 122°27'0 0.0
2014-Sep-05 09:30N 37°48' W 122°27'0 0.0
2014-Sep-05 08:24N 37°48' W 122°27'0 0.0
2014-Sep-05 07:24N 37°48' W 122°27'0 0.0
2014-Sep-05 06:18N 37°48' W 122°27'0 0.0
2014-Sep-05 05:30N 37°48' W 122°27'0 0.0
2014-Sep-05 03:30N 37°48' W 122°27'0 0.0
2014-Sep-05 02:30N 37°48' W 122°27'0 0.0
2014-Sep-05 01:18N 37°48' W 122°27'0 0.0
2014-Sep-05 00:30N 37°48' W 122°27'0 0.0
2014-Sep-04 23:12N 37°48' W 122°27'0 0.0
2014-Sep-04 22:12N 37°48' W 122°27'0 0.0
2014-Sep-04 18:18N 37°48' W 122°27'0 0.0
2014-Sep-04 17:30N 37°48' W 122°27'0 0.0
2014-Sep-04 16:30N 37°48' W 122°27'0 0.0
2014-Sep-04 15:30N 37°48' W 122°27'0 0.0
2014-Sep-04 14:30N 37°48' W 122°27'0 0.0
2014-Sep-04 13:30N 37°48' W 122°27'0 0.0
2014-Sep-04 12:30N 37°48' W 122°27'0 0.0
2014-Sep-04 11:30N 37°48' W 122°27'0 0.0
2014-Sep-04 10:30N 37°48' W 122°27'0 0.0
2014-Sep-04 09:30N 37°48' W 122°27'0 0.0
2014-Sep-04 08:30N 37°48' W 122°27'0 0.0
2014-Sep-04 07:24N 37°48' W 122°27'0 0.0
2014-Sep-04 06:30N 37°48' W 122°27'0 0.0
2014-Sep-04 05:30N 37°48' W 122°27'0 0.0
2014-Sep-04 04:30N 37°48' W 122°27'0 0.0
2014-Sep-04 03:30N 37°48' W 122°27'0 0.0
2014-Sep-04 02:30N 37°48' W 122°27'0 0.0
2014-Sep-04 01:18N 37°48' W 122°27'0 0.0
2014-Sep-03 20:18N 37°48' W 122°27'0 0.0
2014-Sep-03 19:18N 37°48' W 122°27'0 0.0
2014-Sep-03 18:30N 37°48' W 122°27'0 0.0
2014-Sep-03 17:18N 37°48' W 122°27'0 0.0
2014-Sep-03 16:30N 37°48' W 122°27'0 0.0
2014-Sep-03 15:24N 37°48' W 122°27'0 0.0
2014-Sep-03 14:30N 37°48' W 122°27'0 0.0
2014-Sep-03 13:30N 37°48' W 122°27'0 0.0
2014-Sep-03 12:30N 37°48' W 122°27'0 0.0
2014-Sep-03 11:30N 37°48' W 122°27'0 0.0
2014-Sep-03 10:30N 37°48' W 122°27'0 0.0
2014-Sep-03 09:30N 37°48' W 122°27'0 0.0
2014-Sep-03 08:30N 37°48' W 122°27'0 0.0
2014-Sep-03 07:24N 37°48' W 122°27'0 0.0
2014-Sep-03 06:30N 37°48' W 122°27'0 0.0
2014-Sep-03 05:30N 37°48' W 122°27'0 0.0
2014-Sep-03 04:25N 37°48' W 122°27'0 0.0
2014-Sep-03 03:24N 37°48' W 122°27'0 0.0
2014-Sep-03 02:30N 37°48' W 122°27'0 0.0
2014-Sep-03 01:18N 37°48' W 122°27'0 0.0
2014-Sep-03 00:31N 37°48' W 122°27'0 0.0
2014-Sep-02 23:31N 37°48' W 122°27'0 0.0
2014-Sep-02 22:25N 37°48' W 122°27'0 0.0
2014-Sep-02 21:31N 37°48' W 122°27'0 0.0
2014-Sep-02 20:31N 37°48' W 122°27'3 3.1
2014-Sep-02 19:33N 37°50' W 122°23'4 3.5
2014-Sep-02 18:29N 37°50' W 122°19'0 0.0
2014-Sep-02 17:32N 37°50' W 122°19'0 0.0
2014-Sep-02 16:23N 37°50' W 122°19'0 0.0
2014-Sep-02 15:32N 37°50' W 122°19'0 0.0
2014-Sep-02 14:32N 37°50' W 122°19'0 0.0
2014-Sep-02 13:32N 37°50' W 122°19'0 0.0
2014-Sep-02 12:32N 37°50' W 122°19'0 0.0
2014-Sep-02 11:32N 37°50' W 122°19'0 0.0
2014-Sep-02 10:32N 37°50' W 122°19'0 0.0
2014-Sep-02 09:29N 37°50' W 122°19'0 0.0
2014-Sep-02 08:29N 37°50' W 122°19'0 0.0
2014-Sep-02 07:32N 37°50' W 122°19'0 0.0
2014-Sep-02 06:26N 37°50' W 122°19'0 0.0
2014-Sep-02 05:29N 37°50' W 122°19'0 0.0
2014-Sep-02 04:26N 37°50' W 122°19'0 0.0
2014-Sep-02 03:32N 37°50' W 122°19'0 0.0
2014-Sep-02 02:29N 37°50' W 122°19'0 0.0
2014-Sep-02 01:29N 37°50' W 122°19'0 0.0
2014-Sep-02 00:32N 37°50' W 122°19'0 0.0
2014-Sep-01 23:32N 37°50' W 122°19'0 0.0
2014-Sep-01 22:29N 37°50' W 122°19'0 0.0
2014-Sep-01 21:29N 37°50' W 122°19'0 0.0
2014-Sep-01 20:32N 37°50' W 122°19'0 0.0
2014-Sep-01 19:29N 37°50' W 122°19'0 0.0
2014-Sep-01 18:28N 37°50' W 122°19'0 0.0
2014-Sep-01 17:28N 37°50' W 122°19'0 0.0
2014-Sep-01 16:19N 37°50' W 122°19'0 0.0
2014-Sep-01 15:28N 37°50' W 122°19'0 0.0
2014-Sep-01 14:28N 37°50' W 122°19'0 0.0
2014-Sep-01 13:31N 37°50' W 122°19'0 0.0
2014-Sep-01 12:31N 37°50' W 122°19'0 0.0
2014-Sep-01 11:28N 37°50' W 122°19'0 0.0
2014-Sep-01 10:28N 37°50' W 122°19'0 0.0
2014-Sep-01 09:31N 37°50' W 122°19'0 0.0
2014-Sep-01 08:31N 37°50' W 122°19'0 0.0
2014-Sep-01 07:31N 37°50' W 122°19'0 0.0
2014-Sep-01 06:28N 37°50' W 122°19'0 0.0
2014-Sep-01 05:31N 37°50' W 122°19'0 0.0
2014-Sep-01 04:31N 37°50' W 122°19'0 0.0
2014-Sep-01 03:19N 37°50' W 122°19'0 0.0
2014-Sep-01 02:22N 37°50' W 122°19'0 0.0
2014-Sep-01 01:31N 37°50' W 122°19'0 0.0
2014-Sep-01 00:22N 37°50' W 122°19'0 0.0
2014-Aug-31 23:28N 37°50' W 122°19'0 0.0
2014-Aug-31 22:31N 37°50' W 122°19'0 0.0
2014-Aug-31 21:22N 37°50' W 122°19'0 0.0
2014-Aug-31 20:31N 37°50' W 122°19'0 0.0
2014-Aug-31 19:31N 37°50' W 122°19'0 0.0
2014-Aug-31 18:31N 37°50' W 122°19'0 0.0
2014-Aug-31 17:28N 37°50' W 122°19'0 0.0
2014-Aug-31 16:28N 37°50' W 122°19'0 0.0
2014-Aug-31 15:22N 37°50' W 122°19'0 0.0
2014-Aug-31 14:28N 37°50' W 122°19'0 0.0
2014-Aug-31 13:28N 37°50' W 122°19'0 0.0
2014-Aug-31 12:31N 37°50' W 122°19'0 0.0
2014-Aug-31 11:31N 37°50' W 122°19'0 0.0
2014-Aug-31 10:31N 37°50' W 122°19'0 0.0
2014-Aug-31 09:31N 37°50' W 122°19'0 0.0
2014-Aug-31 08:31N 37°50' W 122°19'0 0.0
2014-Aug-31 07:31N 37°50' W 122°19'0 0.0
2014-Aug-31 06:22N 37°50' W 122°19'0 0.0
2014-Aug-31 05:22N 37°50' W 122°19'0 0.0
2014-Aug-31 04:28N 37°50' W 122°19'0 0.0
2014-Aug-31 03:28N 37°50' W 122°19'0 0.0
2014-Aug-31 02:28N 37°50' W 122°19'0 0.0
2014-Aug-31 01:22N 37°50' W 122°19'0 0.0
2014-Aug-31 00:28N 37°50' W 122°19'0 0.0
2014-Aug-30 23:31N 37°50' W 122°19'  
Track history (hours):
 
Tides and Currents Weather Stations Pressure Air Temp Water Temp Dewpoint Dewpoint Depression Visibility Wind Speed Wind Dir Waves Ship Positions

Kodiak

More information available from US FCC via Universal Licensing System and Coast Guard Vessel Documentation Center.

Last reported at 2014-Sep-09 23:06 UTC. Time now 2014-Sep-20 10:00 UTC.
Position N 34°12' W 119°32'.
Warning: this ship's position is 10 days out of date.

Length 22 m.

Type: Pleasure craft. MMSI: 366994170.

Date/timePositionNaut miles runAvg speedWind from/ knotsBaromVisibWave heightAir tempDewpointWater temp
2014-Sep-09 23:06N 34°12' W 119°32'1810.0
2014-Sep-09 21:19N 34°17' W 119°53'137 5.1
2014-Sep-08 18:21N 36°01' W 121°41'8 9.8
2014-Sep-08 17:32N 36°07' W 121°47'9 9.6
2014-Sep-08 16:33N 36°15' W 121°54'10 9.7
2014-Sep-08 15:33N 36°24' W 121°58'1110.4
2014-Sep-08 14:32N 36°34' W 122°00'  
2014-Sep-05 19:04N 37°07' W 122°24'8 9.8
2014-Sep-05 18:12N 37°15' W 122°28'34 8.6
2014-Sep-05 14:16N 37°49' W 122°29'2 2.3
2014-Sep-05 13:24N 37°48' W 122°27'0 0.0
2014-Sep-05 12:06N 37°48' W 122°27'0 0.0
2014-Sep-05 11:30N 37°48' W 122°27'0 0.0
2014-Sep-05 10:18N 37°48' W 122°27'0 0.0
2014-Sep-05 09:30N 37°48' W 122°27'0 0.0
2014-Sep-05 08:24N 37°48' W 122°27'0 0.0
2014-Sep-05 07:24N 37°48' W 122°27'0 0.0
2014-Sep-05 06:18N 37°48' W 122°27'0 0.0
2014-Sep-05 05:30N 37°48' W 122°27'0 0.0
2014-Sep-05 03:30N 37°48' W 122°27'0 0.0
2014-Sep-05 02:30N 37°48' W 122°27'0 0.0
2014-Sep-05 01:18N 37°48' W 122°27'0 0.0
2014-Sep-05 00:30N 37°48' W 122°27'0 0.0
2014-Sep-04 23:12N 37°48' W 122°27'0 0.0
2014-Sep-04 22:12N 37°48' W 122°27'0 0.0
2014-Sep-04 18:18N 37°48' W 122°27'0 0.0
2014-Sep-04 17:30N 37°48' W 122°27'0 0.0
2014-Sep-04 16:30N 37°48' W 122°27'0 0.0
2014-Sep-04 15:30N 37°48' W 122°27'0 0.0
2014-Sep-04 14:30N 37°48' W 122°27'0 0.0
2014-Sep-04 13:30N 37°48' W 122°27'0 0.0
2014-Sep-04 12:30N 37°48' W 122°27'0 0.0
2014-Sep-04 11:30N 37°48' W 122°27'0 0.0
2014-Sep-04 10:30N 37°48' W 122°27'0 0.0
2014-Sep-04 09:30N 37°48' W 122°27'0 0.0
2014-Sep-04 08:30N 37°48' W 122°27'0 0.0
2014-Sep-04 07:24N 37°48' W 122°27'0 0.0
2014-Sep-04 06:30N 37°48' W 122°27'0 0.0
2014-Sep-04 05:30N 37°48' W 122°27'0 0.0
2014-Sep-04 04:30N 37°48' W 122°27'0 0.0
2014-Sep-04 03:30N 37°48' W 122°27'0 0.0
2014-Sep-04 02:30N 37°48' W 122°27'0 0.0
2014-Sep-04 01:18N 37°48' W 122°27'0 0.0
2014-Sep-03 20:18N 37°48' W 122°27'0 0.0
2014-Sep-03 19:18N 37°48' W 122°27'0 0.0
2014-Sep-03 18:30N 37°48' W 122°27'0 0.0
2014-Sep-03 17:18N 37°48' W 122°27'0 0.0
2014-Sep-03 16:30N 37°48' W 122°27'0 0.0
2014-Sep-03 15:24N 37°48' W 122°27'0 0.0
2014-Sep-03 14:30N 37°48' W 122°27'0 0.0
2014-Sep-03 13:30N 37°48' W 122°27'0 0.0
2014-Sep-03 12:30N 37°48' W 122°27'0 0.0
2014-Sep-03 11:30N 37°48' W 122°27'0 0.0
2014-Sep-03 10:30N 37°48' W 122°27'0 0.0
2014-Sep-03 09:30N 37°48' W 122°27'0 0.0
2014-Sep-03 08:30N 37°48' W 122°27'0 0.0
2014-Sep-03 07:24N 37°48' W 122°27'0 0.0
2014-Sep-03 06:30N 37°48' W 122°27'0 0.0
2014-Sep-03 05:30N 37°48' W 122°27'0 0.0
2014-Sep-03 04:25N 37°48' W 122°27'0 0.0
2014-Sep-03 03:24N 37°48' W 122°27'0 0.0
2014-Sep-03 02:30N 37°48' W 122°27'0 0.0
2014-Sep-03 01:18N 37°48' W 122°27'0 0.0
2014-Sep-03 00:31N 37°48' W 122°27'0 0.0
2014-Sep-02 23:31N 37°48' W 122°27'0 0.0
2014-Sep-02 22:25N 37°48' W 122°27'0 0.0
2014-Sep-02 21:31N 37°48' W 122°27'0 0.0
2014-Sep-02 20:31N 37°48' W 122°27'3 3.1
2014-Sep-02 19:33N 37°50' W 122°23'4 3.5
2014-Sep-02 18:29N 37°50' W 122°19'0 0.0
2014-Sep-02 17:32N 37°50' W 122°19'0 0.0
2014-Sep-02 16:23N 37°50' W 122°19'0 0.0
2014-Sep-02 15:32N 37°50' W 122°19'0 0.0
2014-Sep-02 14:32N 37°50' W 122°19'0 0.0
2014-Sep-02 13:32N 37°50' W 122°19'0 0.0
2014-Sep-02 12:32N 37°50' W 122°19'0 0.0
2014-Sep-02 11:32N 37°50' W 122°19'0 0.0
2014-Sep-02 10:32N 37°50' W 122°19'0 0.0
2014-Sep-02 09:29N 37°50' W 122°19'0 0.0
2014-Sep-02 08:29N 37°50' W 122°19'0 0.0
2014-Sep-02 07:32N 37°50' W 122°19'0 0.0
2014-Sep-02 06:26N 37°50' W 122°19'0 0.0
2014-Sep-02 05:29N 37°50' W 122°19'0 0.0
2014-Sep-02 04:26N 37°50' W 122°19'0 0.0
2014-Sep-02 03:32N 37°50' W 122°19'0 0.0
2014-Sep-02 02:29N 37°50' W 122°19'0 0.0
2014-Sep-02 01:29N 37°50' W 122°19'0 0.0
2014-Sep-02 00:32N 37°50' W 122°19'0 0.0
2014-Sep-01 23:32N 37°50' W 122°19'0 0.0
2014-Sep-01 22:29N 37°50' W 122°19'0 0.0
2014-Sep-01 21:29N 37°50' W 122°19'0 0.0
2014-Sep-01 20:32N 37°50' W 122°19'0 0.0
2014-Sep-01 19:29N 37°50' W 122°19'0 0.0
2014-Sep-01 18:28N 37°50' W 122°19'0 0.0
2014-Sep-01 17:28N 37°50' W 122°19'0 0.0
2014-Sep-01 16:19N 37°50' W 122°19'0 0.0
2014-Sep-01 15:28N 37°50' W 122°19'0 0.0
2014-Sep-01 14:28N 37°50' W 122°19'0 0.0
2014-Sep-01 13:31N 37°50' W 122°19'0 0.0
2014-Sep-01 12:31N 37°50' W 122°19'0 0.0
2014-Sep-01 11:28N 37°50' W 122°19'0 0.0
2014-Sep-01 10:28N 37°50' W 122°19'0 0.0
2014-Sep-01 09:31N 37°50' W 122°19'0 0.0
2014-Sep-01 08:31N 37°50' W 122°19'0 0.0
2014-Sep-01 07:31N 37°50' W 122°19'0 0.0
2014-Sep-01 06:28N 37°50' W 122°19'0 0.0
2014-Sep-01 05:31N 37°50' W 122°19'0 0.0
2014-Sep-01 04:31N 37°50' W 122°19'0 0.0
2014-Sep-01 03:19N 37°50' W 122°19'0 0.0
2014-Sep-01 02:22N 37°50' W 122°19'0 0.0
2014-Sep-01 01:31N 37°50' W 122°19'0 0.0
2014-Sep-01 00:22N 37°50' W 122°19'0 0.0
2014-Aug-31 23:28N 37°50' W 122°19'0 0.0
2014-Aug-31 22:31N 37°50' W 122°19'0 0.0
2014-Aug-31 21:22N 37°50' W 122°19'0 0.0
2014-Aug-31 20:31N 37°50' W 122°19'0 0.0
2014-Aug-31 19:31N 37°50' W 122°19'0 0.0
2014-Aug-31 18:31N 37°50' W 122°19'0 0.0
2014-Aug-31 17:28N 37°50' W 122°19'0 0.0
2014-Aug-31 16:28N 37°50' W 122°19'0 0.0
2014-Aug-31 15:22N 37°50' W 122°19'0 0.0
2014-Aug-31 14:28N 37°50' W 122°19'0 0.0
2014-Aug-31 13:28N 37°50' W 122°19'0 0.0
2014-Aug-31 12:31N 37°50' W 122°19'0 0.0
2014-Aug-31 11:31N 37°50' W 122°19'0 0.0
2014-Aug-31 10:31N 37°50' W 122°19'0 0.0
2014-Aug-31 09:31N 37°50' W 122°19'0 0.0
2014-Aug-31 08:31N 37°50' W 122°19'0 0.0
2014-Aug-31 07:31N 37°50' W 122°19'0 0.0
2014-Aug-31 06:22N 37°50' W 122°19'0 0.0
2014-Aug-31 05:22N 37°50' W 122°19'0 0.0
2014-Aug-31 04:28N 37°50' W 122°19'0 0.0
2014-Aug-31 03:28N 37°50' W 122°19'0 0.0
2014-Aug-31 02:28N 37°50' W 122°19'0 0.0
2014-Aug-31 01:22N 37°50' W 122°19'0 0.0
2014-Aug-31 00:28N 37°50' W 122°19'0 0.0
2014-Aug-30 23:31N 37°50' W 122°19'  

Dump ship's entire track history